Time;durP1;ratioP1;P1;durP2;ratioP2;P2;SDS_P1;SDS_P2;PMS_P1;PMS_P2;Temp;Humidity;BMP_temperature;BMP_pressure;BME280_temperature;BME280_humidity;BME280_pressure;Samples;Min_cycle;Max_cycle;Signal;HPM_P1;HPM_P2
2022/11/30 00:01:42;;;;;;;17.00;11.05;;;8.50;74.00;;;;;;5053995;28;20373;-71
2022/11/30 00:04:08;;;;;;;17.08;10.65;;;8.60;74.10;;;;;;5051273;28;20033;-71
2022/11/30 00:06:34;;;;;;;16.35;10.43;;;8.60;74.00;;;;;;5053768;28;20037;-71
2022/11/30 00:08:59;;;;;;;17.50;10.52;;;8.60;73.90;;;;;;5053300;28;20025;-71
2022/11/30 00:11:27;;;;;;;16.30;10.30;;;8.60;73.50;;;;;;5054082;28;20087;-71
2022/11/30 00:13:52;;;;;;;19.77;11.85;;;8.60;73.50;;;;;;5052882;28;20028;-71
2022/11/30 00:16:18;;;;;;;17.95;10.55;;;8.60;73.30;;;;;;5054000;28;20098;-71
2022/11/30 00:18:44;;;;;;;17.17;10.57;;;8.60;73.40;;;;;;5053464;28;20025;-72
2022/11/30 00:21:12;;;;;;;17.23;10.93;;;8.60;73.30;;;;;;5053042;28;20370;-72
2022/11/30 00:23:40;;;;;;;17.92;11.10;;;8.60;73.40;;;;;;5054137;28;20021;-72
2022/11/30 00:26:10;;;;;;;17.58;11.02;;;8.60;73.40;;;;;;5051812;28;20036;-71
2022/11/30 00:28:37;;;;;;;16.48;10.82;;;8.60;73.40;;;;;;5053486;28;20028;-72
2022/11/30 00:31:05;;;;;;;15.85;10.15;;;8.60;73.40;;;;;;5053357;28;20025;-72
2022/11/30 00:33:36;;;;;;;16.80;10.77;;;8.60;73.40;;;;;;5053506;28;20067;-72
2022/11/30 00:36:05;;;;;;;18.05;11.25;;;8.50;73.40;;;;;;5052636;28;20032;-72
2022/11/30 00:38:31;;;;;;;18.02;11.95;;;8.50;73.60;;;;;;5053331;28;20052;-72
2022/11/30 00:40:57;;;;;;;19.80;13.05;;;8.50;73.70;;;;;;5053533;28;20090;-72
2022/11/30 00:43:22;;;;;;;16.77;10.68;;;8.50;73.70;;;;;;5053237;28;20025;-72
2022/11/30 00:45:48;;;;;;;16.55;10.77;;;8.50;73.50;;;;;;5052774;28;20028;-71
2022/11/30 00:48:14;;;;;;;14.68;9.48;;;8.50;73.50;;;;;;5053406;28;20453;-71
2022/11/30 00:50:40;;;;;;;21.40;13.38;;;8.50;73.40;;;;;;5053558;28;20105;-72
2022/11/30 00:53:06;;;;;;;16.50;11.18;;;8.40;73.20;;;;;;5054069;28;20416;-72
2022/11/30 00:55:32;;;;;;;24.23;14.13;;;8.40;73.30;;;;;;5051980;28;20029;-71
2022/11/30 00:57:58;;;;;;;19.00;12.38;;;8.30;73.40;;;;;;5053225;28;20457;-72
2022/11/30 01:00:24;;;;;;;20.75;13.02;;;8.20;73.60;;;;;;5052165;28;20044;-72
2022/11/30 01:02:54;;;;;;;23.52;15.10;;;8.20;74.10;;;;;;5053532;28;20021;-72
2022/11/30 01:05:20;;;;;;;20.13;11.57;;;8.00;74.50;;;;;;5051457;28;20029;-72
2022/11/30 01:07:45;;;;;;;21.85;12.32;;;7.90;74.80;;;;;;5051578;28;20035;-72
2022/11/30 01:10:11;;;;;;;22.45;13.38;;;7.90;75.10;;;;;;5050810;28;20401;-71
2022/11/30 01:12:36;;;;;;;19.75;12.52;;;7.90;75.00;;;;;;5051513;28;20376;-71
2022/11/30 01:15:02;;;;;;;22.65;12.60;;;7.90;75.00;;;;;;5051620;28;20441;-71
2022/11/30 01:17:28;;;;;;;17.15;11.40;;;7.90;75.10;;;;;;5052132;28;20559;-71
2022/11/30 01:19:54;;;;;;;18.90;12.15;;;8.00;75.10;;;;;;5052759;28;20076;-71
2022/11/30 01:22:19;;;;;;;19.23;11.70;;;8.00;75.00;;;;;;5034815;28;20558;-71
2022/11/30 01:24:45;;;;;;;22.25;13.50;;;8.10;75.20;;;;;;5050969;28;20033;-71
2022/11/30 01:27:10;;;;;;;19.15;12.05;;;8.20;75.10;;;;;;5034847;28;20029;-71
2022/11/30 01:29:36;;;;;;;19.88;12.10;;;8.20;75.00;;;;;;5052731;28;20036;-71
2022/11/30 01:32:02;;;;;;;21.52;12.95;;;8.20;74.90;;;;;;5052476;28;20037;-71
2022/11/30 01:34:27;;;;;;;19.70;11.93;;;8.20;74.80;;;;;;5051733;28;20029;-71
2022/11/30 01:36:53;;;;;;;21.08;12.68;;;8.20;74.60;;;;;;5034243;28;20036;-71
2022/11/30 01:39:19;;;;;;;18.00;11.82;;;8.20;74.20;;;;;;5052282;28;20033;-71
2022/11/30 01:41:44;;;;;;;23.30;13.25;;;8.10;74.50;;;;;;5052139;28;20028;-71
2022/11/30 01:44:13;;;;;;;20.17;12.85;;;8.00;74.40;;;;;;5052099;28;20037;-71
2022/11/30 01:46:59;;;;;;;19.63;11.73;;;8.00;74.80;;;;;;5052101;28;20029;-71
2022/11/30 01:49:38;;;;;;;19.55;11.88;;;8.10;74.70;;;;;;5053205;28;20086;-71
2022/11/30 01:52:12;;;;;;;23.20;14.05;;;8.10;74.70;;;;;;5051999;28;20040;-70
2022/11/30 01:54:50;;;;;;;24.10;14.85;;;8.00;74.60;;;;;;5050794;28;20108;-71
2022/11/30 01:57:38;;;;;;;17.42;11.48;;;7.80;74.40;;;;;;5044341;28;20024;-70
2022/11/30 02:00:07;;;;;;;20.30;11.95;;;7.80;75.20;;;;;;5051289;28;20025;-72
2022/11/30 02:02:46;;;;;;;20.30;12.45;;;7.80;75.20;;;;;;5051904;28;20029;-72
2022/11/30 02:05:13;;;;;;;20.00;12.38;;;7.60;75.50;;;;;;5050265;28;20025;-72
2022/11/30 02:07:39;;;;;;;20.35;12.77;;;7.60;75.50;;;;;;5051436;28;20051;-71
2022/11/30 02:10:05;;;;;;;20.88;12.77;;;7.60;75.50;;;;;;5051079;28;20485;-72
2022/11/30 02:12:43;;;;;;;18.30;10.40;;;7.60;75.60;;;;;;5051577;28;20028;-72
2022/11/30 02:15:14;;;;;;;23.73;14.02;;;7.60;75.60;;;;;;5048817;28;20053;-72
2022/11/30 02:17:52;;;;;;;;;;;7.70;75.80;;;;;;5051567;28;20042;-71
2022/11/30 02:20:30;;;;;;;19.85;12.05;;;7.60;75.80;;;;;;5051887;28;19912;-72
2022/11/30 02:23:23;;;;;;;20.05;12.30;;;7.60;76.00;;;;;;5030155;28;20033;-72
2022/11/30 02:26:10;;;;;;;23.23;12.82;;;7.60;76.30;;;;;;5049045;28;20029;-72
2022/11/30 02:28:59;;;;;;;21.88;13.65;;;7.50;76.40;;;;;;5051750;28;20020;-72
2022/11/30 02:31:31;;;;;;;25.90;14.73;;;7.50;76.50;;;;;;5050026;28;20047;-72
2022/11/30 02:33:58;;;;;;;21.20;11.93;;;7.50;76.70;;;;;;5051760;28;20275;-72
2022/11/30 02:36:24;;;;;;;21.33;13.02;;;7.50;76.50;;;;;;5051616;28;20071;-72
2022/11/30 02:38:51;;;;;;;21.23;12.63;;;7.50;76.90;;;;;;5051497;28;20048;-72
2022/11/30 02:41:16;;;;;;;20.30;12.27;;;7.40;77.20;;;;;;5050002;28;20028;-73
2022/11/30 02:43:43;;;;;;;21.27;12.48;;;7.40;77.30;;;;;;5050987;28;20500;-72
2022/11/30 02:46:17;;;;;;;19.17;12.35;;;7.30;77.90;;;;;;5057988;28;20033;-72
2022/11/30 02:49:05;;;;;;;18.30;11.80;;;7.30;78.20;;;;;;5050181;28;20021;-73
2022/11/30 02:51:35;;;;;;;24.63;15.15;;;7.40;77.40;;;;;;5050076;28;20021;-72
2022/11/30 02:54:01;;;;;;;20.98;12.98;;;7.40;77.30;;;;;;5050770;28;20033;-72
2022/11/30 02:56:28;;;;;;;21.80;12.20;;;7.40;77.50;;;;;;5051309;28;20036;-73
2022/11/30 02:58:53;;;;;;;17.75;11.60;;;7.30;77.30;;;;;;5051293;28;20103;-73
2022/11/30 03:01:20;;;;;;;23.20;13.38;;;7.30;77.30;;;;;;5050615;28;20120;-71
2022/11/30 03:03:46;;;;;;;20.20;13.30;;;7.40;77.40;;;;;;5043551;28;20101;-73
2022/11/30 03:06:12;;;;;;;20.17;12.43;;;7.40;77.60;;;;;;5051399;28;20033;-73
2022/11/30 03:08:37;;;;;;;20.10;12.50;;;7.40;77.60;;;;;;5051180;28;20471;-72
2022/11/30 03:11:04;;;;;;;23.75;14.40;;;7.40;77.50;;;;;;5050701;28;20017;-71
2022/11/30 03:13:31;;;;;;;22.58;13.52;;;7.40;77.60;;;;;;5051289;28;20391;-71
2022/11/30 03:15:57;;;;;;;20.23;11.65;;;7.40;77.70;;;;;;5051619;28;20029;-70
2022/11/30 03:18:22;;;;;;;21.98;13.55;;;7.30;77.60;;;;;;5051566;28;20155;-72
2022/11/30 03:20:48;;;;;;;19.60;11.98;;;7.40;77.50;;;;;;5051282;28;20048;-72
2022/11/30 03:23:14;;;;;;;17.83;11.60;;;7.40;77.40;;;;;;5051237;28;20048;-72
2022/11/30 03:25:39;;;;;;;18.90;12.02;;;7.50;77.60;;;;;;5050985;28;20029;-72
2022/11/30 03:28:05;;;;;;;18.77;11.82;;;7.60;77.50;;;;;;5053493;28;20021;-72
2022/11/30 03:30:30;;;;;;;23.63;13.50;;;7.60;77.20;;;;;;5055300;28;20075;-71
2022/11/30 03:32:56;;;;;;;18.38;11.90;;;7.70;76.80;;;;;;5054937;28;20029;-71
2022/11/30 03:35:22;;;;;;;19.13;11.65;;;7.70;76.80;;;;;;5054304;28;20037;-72
2022/11/30 03:37:47;;;;;;;20.08;11.93;;;7.70;76.70;;;;;;5055049;28;20071;-71
2022/11/30 03:40:13;;;;;;;20.15;12.00;;;7.70;76.20;;;;;;5055256;28;20457;-71
2022/11/30 03:42:39;;;;;;;19.40;12.05;;;7.60;76.20;;;;;;5052325;28;20025;-72
2022/11/30 03:45:05;;;;;;;17.25;10.55;;;7.70;76.30;;;;;;5047142;28;20104;-71
2022/11/30 03:47:31;;;;;;;18.95;10.93;;;7.70;76.40;;;;;;5054380;28;20029;-71
2022/11/30 03:49:56;;;;;;;19.73;12.07;;;7.70;76.40;;;;;;5054943;28;20059;-72
2022/11/30 03:52:23;;;;;;;17.15;11.00;;;7.70;76.60;;;;;;5054615;28;20091;-71
2022/11/30 03:54:49;;;;;;;19.25;11.55;;;7.80;76.70;;;;;;5054410;28;20029;-71
2022/11/30 03:57:15;;;;;;;19.35;11.05;;;7.80;75.80;;;;;;5046154;28;20029;-71
2022/11/30 03:59:40;;;;;;;22.85;12.93;;;7.80;76.10;;;;;;5054902;28;20385;-71
2022/11/30 04:02:06;;;;;;;21.40;11.93;;;7.70;75.80;;;;;;5054505;28;20025;-71
2022/11/30 04:04:31;;;;;;;15.18;10.43;;;7.60;76.50;;;;;;5054441;28;20029;-71
2022/11/30 04:06:57;;;;;;;21.48;13.20;;;7.50;76.80;;;;;;5054726;28;20036;-73
2022/11/30 04:09:23;;;;;;;17.83;11.15;;;7.50;76.70;;;;;;5053610;28;20409;-72
2022/11/30 04:11:48;;;;;;;20.17;12.35;;;7.40;76.90;;;;;;5053840;28;20032;-71
2022/11/30 04:14:14;;;;;;;23.25;13.25;;;7.40;76.90;;;;;;5054041;28;20036;-71
2022/11/30 04:16:40;;;;;;;20.70;12.25;;;7.40;77.30;;;;;;5035836;28;20029;-71
2022/11/30 04:19:07;;;;;;;22.95;14.27;;;7.30;77.50;;;;;;5053522;28;20364;-71
2022/11/30 04:21:32;;;;;;;22.27;12.30;;;7.10;78.30;;;;;;5054181;28;20447;-71
2022/11/30 04:23:58;;;;;;;19.95;11.52;;;7.20;78.10;;;;;;5054166;28;20021;-71
2022/11/30 04:26:24;;;;;;;20.77;12.57;;;7.20;78.10;;;;;;5053641;28;20129;-71
2022/11/30 04:28:49;;;;;;;23.40;14.00;;;7.30;78.00;;;;;;5054039;28;20453;-71
2022/11/30 04:31:15;;;;;;;20.25;12.60;;;7.30;78.20;;;;;;5052896;28;20029;-71
2022/11/30 04:33:41;;;;;;;20.30;13.20;;;7.30;78.30;;;;;;5053781;28;20033;-71
2022/11/30 04:36:14;;;;;;;22.67;13.02;;;7.30;78.40;;;;;;5053877;28;20091;-71
2022/11/30 04:38:40;;;;;;;21.08;12.75;;;7.30;78.10;;;;;;5052891;28;20123;-71
2022/11/30 04:41:07;;;;;;;24.10;13.38;;;7.30;78.30;;;;;;5052775;28;20104;-71
2022/11/30 04:43:33;;;;;;;20.13;12.30;;;7.30;79.30;;;;;;5045525;28;20029;-71
2022/11/30 04:45:59;;;;;;;22.13;11.50;;;7.20;78.80;;;;;;5053554;28;20087;-71
2022/11/30 04:48:24;;;;;;;19.52;11.55;;;7.20;79.10;;;;;;5053207;28;20381;-71
2022/11/30 04:50:50;;;;;;;19.13;11.85;;;7.20;78.90;;;;;;5052420;28;20107;-72
2022/11/30 04:53:16;;;;;;;19.65;11.55;;;7.20;79.00;;;;;;5053548;28;20033;-71
2022/11/30 04:55:41;;;;;;;18.65;12.20;;;7.30;79.00;;;;;;5053626;28;20040;-72
2022/11/30 04:58:07;;;;;;;19.30;12.63;;;7.30;78.90;;;;;;5053597;28;20029;-72
2022/11/30 05:00:34;;;;;;;20.98;13.23;;;7.30;78.80;;;;;;5051891;28;20072;-72
2022/11/30 05:03:00;;;;;;;23.13;13.30;;;7.30;78.90;;;;;;5053062;28;20160;-72
2022/11/30 05:05:26;;;;;;;20.65;13.65;;;7.30;79.10;;;;;;5052621;28;20482;-72
2022/11/30 05:07:57;;;;;;;21.30;13.43;;;7.30;79.20;;;;;;5053612;28;20484;-72
2022/11/30 05:10:24;;;;;;;;;;;7.30;79.00;;;;;;5053042;28;20025;-72
2022/11/30 05:12:50;;;;;;;18.25;11.57;;;7.40;79.10;;;;;;5035027;28;19913;-71
2022/11/30 05:15:15;;;;;;;21.05;12.57;;;7.40;79.30;;;;;;5053350;28;20035;-71
2022/11/30 05:17:41;;;;;;;21.08;12.43;;;7.40;79.10;;;;;;5053256;28;20037;-72
2022/11/30 05:20:07;;;;;;;20.40;11.70;;;7.40;79.10;;;;;;5052104;28;20083;-72
2022/11/30 05:22:34;;;;;;;17.88;11.52;;;7.40;79.10;;;;;;5052572;28;20063;-72
2022/11/30 05:25:01;;;;;;;17.10;11.38;;;7.40;79.00;;;;;;5052800;28;20404;-72
2022/11/30 05:27:26;;;;;;;18.55;11.90;;;7.40;79.10;;;;;;5052885;28;20033;-72
2022/11/30 05:29:52;;;;;;;17.98;11.73;;;7.50;79.10;;;;;;5051964;28;20409;-72
2022/11/30 05:32:18;;;;;;;18.95;11.88;;;7.60;79.10;;;;;;5053193;28;20329;-72
2022/11/30 05:34:43;;;;;;;19.48;11.68;;;7.60;79.00;;;;;;5052838;28;20025;-73
2022/11/30 05:37:09;;;;;;;18.17;10.95;;;7.60;78.70;;;;;;5046527;28;20045;-72
2022/11/30 05:39:35;;;;;;;19.17;11.48;;;7.70;78.40;;;;;;5051915;28;20028;-72
2022/11/30 05:42:00;;;;;;;18.95;10.77;;;7.70;78.20;;;;;;5052571;28;20033;-73
2022/11/30 05:44:26;;;;;;;16.00;10.80;;;7.70;77.90;;;;;;5052318;28;20400;-73
2022/11/30 05:46:51;;;;;;;22.10;12.32;;;7.80;77.90;;;;;;5052480;28;20033;-73
2022/11/30 05:49:17;;;;;;;17.92;10.77;;;7.80;77.30;;;;;;5051305;28;20377;-73
2022/11/30 05:51:43;;;;;;;19.65;11.55;;;7.80;77.50;;;;;;5049987;28;20487;-73
2022/11/30 05:54:08;;;;;;;17.08;10.10;;;7.80;77.40;;;;;;5052068;28;20025;-73
2022/11/30 05:56:34;;;;;;;16.80;10.63;;;7.80;77.30;;;;;;5058669;28;20033;-72
2022/11/30 05:58:59;;;;;;;18.08;11.27;;;7.80;77.30;;;;;;5052038;28;20096;-72
2022/11/30 06:01:27;;;;;;;23.65;14.07;;;7.90;77.10;;;;;;5050378;28;20119;-72
2022/11/30 06:03:54;;;;;;;24.27;14.85;;;7.70;76.50;;;;;;5053633;28;20045;-72
2022/11/30 06:06:20;;;;;;;19.45;11.48;;;7.50;76.80;;;;;;5052877;28;20412;-71
2022/11/30 06:08:47;;;;;;;18.65;11.20;;;7.50;77.50;;;;;;5050554;28;20477;-72
2022/11/30 06:11:13;;;;;;;21.90;13.85;;;7.50;77.60;;;;;;5051925;28;20033;-72
2022/11/30 06:13:40;;;;;;;22.63;11.65;;;7.30;77.80;;;;;;5051955;28;20025;-72
2022/11/30 06:16:07;;;;;;;22.85;13.82;;;7.30;77.90;;;;;;5051992;28;20072;-71
2022/11/30 06:18:32;;;;;;;20.30;12.75;;;7.30;78.10;;;;;;5050742;28;20469;-72
2022/11/30 06:21:02;;;;;;;23.20;12.85;;;7.10;78.10;;;;;;5051490;28;20039;-72
2022/11/30 06:23:28;;;;;;;19.17;11.55;;;7.20;78.30;;;;;;5058652;28;20120;-70
2022/11/30 06:25:54;;;;;;;17.63;10.90;;;7.00;78.60;;;;;;5052046;28;20033;-70
2022/11/30 06:28:20;;;;;;;18.80;10.88;;;7.00;78.60;;;;;;5051040;28;20029;-70
2022/11/30 06:30:45;;;;;;;21.02;12.30;;;7.10;78.50;;;;;;5051756;28;20045;-70
2022/11/30 06:33:11;;;;;;;19.48;12.50;;;6.90;78.40;;;;;;5052244;28;20025;-71
2022/11/30 06:35:42;;;;;;;21.05;11.23;;;7.00;78.80;;;;;;5052446;28;20033;-71
2022/11/30 06:38:08;;;;;;;17.02;10.73;;;7.00;78.60;;;;;;5050286;28;20524;-72
2022/11/30 06:40:34;;;;;;;18.52;10.70;;;7.00;78.60;;;;;;5044709;28;20038;-72
2022/11/30 06:42:59;;;;;;;19.02;11.32;;;7.10;79.00;;;;;;5049978;28;20111;-72
2022/11/30 06:45:25;;;;;;;23.27;13.43;;;7.10;78.90;;;;;;5033943;28;20036;-75
2022/11/30 06:47:55;;;;;;;26.55;12.75;;;7.00;78.90;;;;;;5051865;28;20021;-74
2022/11/30 06:50:21;;;;;;;17.77;11.77;;;7.00;78.90;;;;;;5050514;28;20021;-74
2022/11/30 06:52:47;;;;;;;17.45;10.57;;;7.00;79.00;;;;;;5051661;28;20027;-74
2022/11/30 06:55:12;;;;;;;19.58;13.20;;;7.00;78.90;;;;;;5051661;28;20029;-72
2022/11/30 06:57:38;;;;;;;18.02;10.75;;;6.90;79.00;;;;;;5051472;28;20057;-71
2022/11/30 07:00:05;;;;;;;20.48;10.68;;;7.00;78.90;;;;;;5032750;28;20079;-71
2022/11/30 07:02:30;;;;;;;21.05;11.30;;;7.10;79.40;;;;;;5057959;28;20029;-73
2022/11/30 07:04:56;;;;;;;16.23;9.50;;;7.10;79.00;;;;;;5036583;28;20032;-72
2022/11/30 07:07:22;;;;;;;17.80;11.75;;;7.10;79.50;;;;;;5054112;28;20067;-77
2022/11/30 07:09:49;;;;;;;21.38;12.43;;;7.20;78.80;;;;;;5052230;28;20056;-73
2022/11/30 07:12:15;;;;;;;20.52;11.90;;;7.10;79.00;;;;;;5045539;28;20119;-72
2022/11/30 07:14:41;;;;;;;22.05;13.60;;;7.10;78.80;;;;;;5054208;28;20041;-73
2022/11/30 07:17:07;;;;;;;18.45;10.65;;;7.10;78.80;;;;;;5047681;28;20498;-73
2022/11/30 07:19:33;;;;;;;16.48;10.88;;;7.10;78.70;;;;;;5054053;28;21645;-78
2022/11/30 07:21:59;;;;;;;18.73;11.13;;;7.20;78.80;;;;;;5054608;28;20075;-78
2022/11/30 07:27:08;;;;;;;17.48;11.45;;;7.20;78.50;;;;;;5055625;28;20144;-73
2022/11/30 07:29:34;;;;;;;20.08;12.15;;;7.20;78.80;;;;;;5052746;28;20521;-73
2022/11/30 07:32:00;;;;;;;20.52;12.88;;;7.10;78.90;;;;;;5056001;28;20063;-78
2022/11/30 07:34:25;;;;;;;22.27;12.02;;;7.10;78.40;;;;;;5047049;28;20035;-78
2022/11/30 07:36:51;;;;;;;19.08;11.15;;;7.00;79.00;;;;;;5051235;28;20079;-79
2022/11/30 07:39:18;;;;;;;16.63;10.80;;;7.00;79.30;;;;;;5046967;28;20513;-78
2022/11/30 07:41:43;;;;;;;22.58;13.75;;;7.10;79.40;;;;;;5053861;28;20025;-80
2022/11/30 07:44:10;;;;;;;19.02;11.65;;;7.10;79.00;;;;;;5053908;28;20107;-80
2022/11/30 07:46:37;;;;;;;18.30;11.40;;;7.10;79.10;;;;;;5054566;28;20044;-81
2022/11/30 07:49:08;;;;;;;15.93;9.98;;;7.10;78.40;;;;;;5057711;28;20024;-79
2022/11/30 07:51:35;;;;;;;18.35;10.88;;;7.30;78.80;;;;;;5052386;28;20112;-80
2022/11/30 07:54:01;;;;;;;17.30;11.05;;;7.40;78.90;;;;;;5046709;28;20065;-79
2022/11/30 07:56:27;;;;;;;17.90;10.88;;;7.50;78.70;;;;;;5053043;28;20453;-82
2022/11/30 07:58:59;;;;;;;22.88;13.20;;;7.60;78.50;;;;;;5055077;28;20029;-82
2022/11/30 08:01:27;;;;;;;21.85;11.20;;;7.60;78.30;;;;;;5055558;28;20462;-81
2022/11/30 08:03:53;;;;;;;18.35;10.95;;;7.70;78.10;;;;;;5036557;28;20059;-81
2022/11/30 08:06:28;;;;;;;17.90;11.57;;;7.80;78.10;;;;;;5054083;28;20040;-80
2022/11/30 08:08:57;;;;;;;17.00;10.45;;;7.80;77.30;;;;;;5054713;28;20024;-79
2022/11/30 08:11:26;;;;;;;18.55;11.13;;;7.90;77.40;;;;;;5053448;28;20539;-80
2022/11/30 08:13:52;;;;;;;19.92;11.15;;;7.90;77.00;;;;;;5053495;28;20025;-81
2022/11/30 08:16:21;;;;;;;17.40;10.38;;;7.90;77.00;;;;;;5054138;28;20037;-80
2022/11/30 08:18:47;;;;;;;16.42;10.50;;;7.90;77.00;;;;;;5053813;28;20051;-79
2022/11/30 08:21:15;;;;;;;13.95;9.68;;;8.00;77.20;;;;;;5036182;28;20119;-79
2022/11/30 08:23:43;;;;;;;22.40;13.13;;;8.10;77.00;;;;;;5054347;28;20033;-81
2022/11/30 08:26:21;;;;;;;19.10;10.82;;;8.00;76.60;;;;;;5054259;28;20029;-80
2022/11/30 08:28:49;;;;;;;25.08;13.43;;;7.90;76.80;;;;;;5046955;28;20021;-80
2022/11/30 08:31:21;;;;;;;16.02;10.23;;;7.90;76.60;;;;;;5036032;28;20028;-80
2022/11/30 08:33:47;;;;;;;16.83;10.77;;;8.10;77.00;;;;;;5055207;28;20063;-79
2022/11/30 08:36:15;;;;;;;14.82;9.88;;;8.10;76.60;;;;;;5050080;28;20082;-79
2022/11/30 08:38:42;;;;;;;19.40;11.07;;;8.20;76.70;;;;;;5053677;28;20048;-80
2022/11/30 08:41:11;;;;;;;17.75;11.18;;;8.20;75.60;;;;;;5052876;28;20041;-80
2022/11/30 08:43:37;;;;;;;18.58;10.57;;;8.40;76.50;;;;;;5050167;28;20088;-81
2022/11/30 08:46:05;;;;;;;21.35;12.15;;;8.40;75.90;;;;;;5053087;28;20481;-80
2022/11/30 08:48:31;;;;;;;17.00;10.75;;;8.50;75.60;;;;;;5054136;28;20102;-81
2022/11/30 08:51:01;;;;;;;15.25;9.90;;;8.40;75.40;;;;;;5037025;28;20087;-80
2022/11/30 08:53:26;;;;;;;;;;;8.30;75.40;;;;;;5052542;28;20035;-81
2022/11/30 08:56:01;;;;;;;16.85;10.15;;;8.40;75.60;;;;;;5054695;28;19909;-80
2022/11/30 08:58:30;;;;;;;18.98;11.55;;;8.30;75.60;;;;;;5042522;28;20033;-76
2022/11/30 09:01:05;;;;;;;15.60;9.07;;;8.40;75.90;;;;;;5050504;28;20029;-76
2022/11/30 09:03:31;;;;;;;15.52;10.88;;;8.40;76.10;;;;;;5049054;28;20037;-75
2022/11/30 09:06:04;;;;;;;16.38;10.93;;;8.40;75.60;;;;;;5043442;28;20036;-76
2022/11/30 09:08:39;;;;;;;16.98;9.80;;;8.40;75.90;;;;;;5055256;28;20498;-76
2022/11/30 09:11:25;;;;;;;17.38;10.73;;;8.50;76.10;;;;;;5035558;28;20032;-80
2022/11/30 09:13:56;;;;;;;16.67;10.30;;;8.60;76.20;;;;;;5049700;28;20029;-80
2022/11/30 09:16:23;;;;;;;17.80;9.77;;;8.70;75.10;;;;;;5050429;28;20741;-80
2022/11/30 09:18:49;;;;;;;15.82;9.60;;;8.80;75.40;;;;;;5048237;28;20043;-77
2022/11/30 09:21:19;;;;;;;15.25;9.40;;;8.80;75.30;;;;;;5047518;28;20116;-76
2022/11/30 09:23:45;;;;;;;20.58;10.57;;;8.90;75.50;;;;;;5050601;28;20377;-78
2022/11/30 09:26:13;;;;;;;18.05;10.57;;;8.90;75.20;;;;;;5049883;28;20040;-76
2022/11/30 09:28:39;;;;;;;13.00;8.63;;;9.00;74.80;;;;;;5050711;28;20017;-79
2022/11/30 09:31:12;;;;;;;14.13;9.20;;;9.10;74.70;;;;;;5052090;28;20037;-78
2022/11/30 09:33:38;;;;;;;16.15;9.60;;;9.20;74.40;;;;;;5051534;28;20021;-76
2022/11/30 09:36:12;;;;;;;14.63;9.50;;;9.20;74.20;;;;;;5045582;28;20137;-75
2022/11/30 09:38:39;;;;;;;15.20;9.13;;;9.10;73.90;;;;;;5049574;28;20049;-76
2022/11/30 09:41:25;;;;;;;15.88;10.43;;;9.20;74.30;;;;;;5047806;28;20029;-77
2022/11/30 09:44:28;;;;;;;21.65;10.48;;;9.40;74.00;;;;;;5048416;28;20481;-78
2022/11/30 09:47:27;;;;;;;15.98;9.88;;;9.50;73.90;;;;;;5046808;28;20029;-77
2022/11/30 09:49:53;;;;;;;14.57;9.23;;;9.50;73.40;;;;;;4949495;28;20041;-77
2022/11/30 09:52:24;;;;;;;13.82;8.80;;;9.50;73.00;;;;;;5049165;28;20024;-76
2022/11/30 09:54:50;;;;;;;15.15;9.43;;;9.60;73.20;;;;;;5048605;28;20013;-76
2022/11/30 09:57:30;;;;;;;15.80;9.15;;;9.70;72.90;;;;;;5048736;28;20032;-78
2022/11/30 10:00:03;;;;;;;11.55;7.25;;;9.80;72.10;;;;;;5029677;28;20088;-77
2022/11/30 10:02:31;;;;;;;12.93;7.25;;;9.90;72.50;;;;;;5063410;22;20045;-77
2022/11/30 10:04:58;;;;;;;11.93;7.35;;;10.00;72.70;;;;;;5063098;28;20055;-76
2022/11/30 10:07:39;;;;;;;10.18;6.43;;;10.20;72.80;;;;;;5070751;28;20036;-77
2022/11/30 10:10:05;;;;;;;13.23;8.15;;;10.30;72.60;;;;;;5070898;28;20520;-76
2022/11/30 10:13:06;;;;;;;9.15;6.38;;;10.30;69.90;;;;;;5072177;28;20100;-77
2022/11/30 10:16:04;;;;;;;11.07;7.00;;;10.40;70.80;;;;;;4976162;28;20046;-77
2022/11/30 10:19:01;;;;;;;10.70;6.78;;;10.60;70.50;;;;;;5066955;28;20059;-76
2022/11/30 10:22:03;;;;;;;11.13;7.10;;;10.80;69.80;;;;;;5067158;28;20177;-75
2022/11/30 10:25:11;;;;;;;9.68;6.35;;;11.00;69.20;;;;;;5043475;28;20051;-78
2022/11/30 10:28:00;;;;;;;12.88;6.78;;;11.20;69.20;;;;;;5093286;23;20048;-78
2022/11/30 10:30:33;;;;;;;10.55;6.75;;;11.50;69.10;;;;;;5021094;28;20037;-78
2022/11/30 10:33:09;;;;;;;10.18;6.28;;;11.70;69.50;;;;;;5031464;28;20029;-78
2022/11/30 10:35:46;;;;;;;9.80;6.22;;;12.00;69.10;;;;;;5025413;28;20493;-77
2022/11/30 10:38:23;;;;;;;10.93;5.93;;;12.20;68.30;;;;;;5033994;28;20355;-77
2022/11/30 10:41:05;;;;;;;10.75;6.93;;;12.40;67.30;;;;;;5035929;28;20034;-77
2022/11/30 10:43:37;;;;;;;8.90;5.75;;;12.50;64.80;;;;;;5011471;28;20499;-77
2022/11/30 10:46:03;;;;;;;7.90;5.30;;;12.50;64.80;;;;;;5017648;28;20033;-76
2022/11/30 10:48:44;;;;;;;8.05;5.68;;;12.70;65.90;;;;;;5027774;28;20037;-77
2022/11/30 10:51:11;;;;;;;9.55;6.43;;;12.80;65.10;;;;;;5035030;28;20040;-77
2022/11/30 10:53:37;;;;;;;8.95;5.80;;;13.00;64.00;;;;;;5035988;28;20033;-76
2022/11/30 10:56:10;;;;;;;8.95;6.43;;;13.00;63.20;;;;;;5035565;28;20091;-77
2022/11/30 10:58:43;;;;;;;12.02;6.28;;;13.10;61.40;;;;;;5028931;28;20450;-77
2022/11/30 11:01:27;;;;;;;10.85;7.47;;;13.30;62.80;;;;;;5017029;28;20083;-78
2022/11/30 11:04:08;;;;;;;11.75;6.40;;;13.20;59.60;;;;;;5030303;28;20037;-77
2022/11/30 11:06:34;;;;;;;11.32;7.40;;;13.30;60.20;;;;;;5034045;28;20234;-77
2022/11/30 11:09:29;;;;;;;8.18;5.57;;;13.00;60.30;;;;;;5033726;28;20496;-77
2022/11/30 11:12:00;;;;;;;8.32;5.78;;;13.20;61.50;;;;;;5017120;28;20111;-77
2022/11/30 11:14:27;;;;;;;5.78;4.28;;;13.40;61.00;;;;;;5034153;28;20021;-77
2022/11/30 11:17:17;;;;;;;7.07;4.90;;;13.60;61.70;;;;;;5016127;28;20037;-78
2022/11/30 11:19:45;;;;;;;8.40;5.68;;;13.90;61.80;;;;;;5034089;28;20109;-78
2022/11/30 11:22:24;;;;;;;8.20;5.45;;;14.20;61.30;;;;;;5032241;28;20048;-78
2022/11/30 11:24:55;;;;;;;11.35;5.50;;;14.30;60.40;;;;;;5033919;28;20032;-78
2022/11/30 11:27:28;;;;;;;8.02;5.20;;;14.50;59.70;;;;;;5032645;28;20064;-78
2022/11/30 11:30:04;;;;;;;6.55;4.43;;;14.40;58.20;;;;;;5015050;28;20061;-77
2022/11/30 11:32:31;;;;;;;8.75;5.50;;;14.30;57.90;;;;;;5011901;28;20121;-79
2022/11/30 11:34:57;;;;;;;8.57;5.85;;;14.30;58.20;;;;;;4997808;28;20545;-79
2022/11/30 11:37:30;;;;;;;7.45;5.30;;;14.20;57.00;;;;;;4996863;28;20040;-80
2022/11/30 11:40:08;;;;;;;8.85;5.55;;;14.20;58.80;;;;;;5015282;28;20026;-79
2022/11/30 11:42:50;;;;;;;7.70;5.63;;;14.20;58.90;;;;;;5015089;28;20038;-80
2022/11/30 11:45:28;;;;;;;7.90;5.20;;;14.20;58.50;;;;;;5014961;28;20038;-75
2022/11/30 11:48:02;;;;;;;8.25;5.80;;;14.30;59.30;;;;;;4997600;28;20088;-75
2022/11/30 11:50:36;;;;;;;7.47;5.15;;;14.40;58.20;;;;;;5015093;28;20103;-79
2022/11/30 11:53:22;;;;;;;7.47;5.30;;;14.40;58.40;;;;;;5015122;28;20030;-79
2022/11/30 11:56:03;;;;;;;7.75;5.70;;;14.40;58.30;;;;;;5014356;28;20026;-79
2022/11/30 11:58:39;;;;;;;7.15;4.97;;;14.40;58.10;;;;;;5014768;28;20034;-79
2022/11/30 12:01:09;;;;;;;8.32;5.78;;;14.40;57.70;;;;;;5015199;28;20022;-79
2022/11/30 12:04:03;;;;;;;9.27;5.82;;;14.30;58.00;;;;;;5009183;28;20032;-78
2022/11/30 12:06:31;;;;;;;6.35;4.82;;;14.20;57.90;;;;;;5014096;28;20034;-80
2022/11/30 12:09:05;;;;;;;8.60;5.15;;;14.20;58.10;;;;;;5014915;28;20026;-80
2022/11/30 12:11:38;;;;;;;8.07;5.38;;;14.10;58.10;;;;;;5014178;28;20030;-80
2022/11/30 12:14:12;;;;;;;7.57;5.35;;;13.90;57.80;;;;;;5014885;28;20176;-80
2022/11/30 12:16:53;;;;;;;6.60;5.20;;;13.90;57.70;;;;;;4996581;28;20414;-80
2022/11/30 12:19:23;;;;;;;8.05;5.25;;;13.80;58.60;;;;;;5014203;28;20488;-80
2022/11/30 12:22:01;;;;;;;;;;;13.70;58.90;;;;;;5014402;28;20527;-80
2022/11/30 12:24:35;;;;;;;8.63;5.50;;;13.40;58.30;;;;;;5014143;28;19932;-80
2022/11/30 12:27:23;;;;;;;8.05;5.20;;;13.30;59.30;;;;;;5013731;28;20029;-80
2022/11/30 12:30:14;;;;;;;11.05;6.18;;;13.20;59.70;;;;;;5012052;28;20042;-80
2022/11/30 12:33:04;;;;;;;10.18;6.53;;;13.10;59.70;;;;;;5011647;28;20110;-79
2022/11/30 12:35:54;;;;;;;8.30;5.63;;;13.10;60.60;;;;;;4996655;28;20069;-81
2022/11/30 12:38:25;;;;;;;10.07;5.75;;;13.10;60.70;;;;;;5013788;28;20092;-82
2022/11/30 12:41:26;;;;;;;7.78;5.53;;;13.10;60.50;;;;;;5010716;28;20466;-75
2022/11/30 12:44:33;;;;;;;7.43;4.82;;;13.10;60.70;;;;;;4993797;28;20087;-75
2022/11/30 12:47:07;;;;;;;8.57;6.13;;;13.00;61.20;;;;;;5011335;28;20045;-75
2022/11/30 12:49:48;;;;;;;8.95;6.05;;;13.00;61.60;;;;;;5010707;28;20022;-80
2022/11/30 12:52:21;;;;;;;;;;;12.90;61.50;;;;;;5012269;28;20112;-75
2022/11/30 12:54:50;;;;;;;10.27;4.75;;;12.80;60.80;;;;;;4994252;28;19952;-75
2022/11/30 12:57:45;;;;;;;6.97;4.68;;;12.70;61.40;;;;;;5012422;28;20374;-81
2022/11/30 13:00:25;;;;;;;6.30;4.60;;;12.70;61.80;;;;;;5010550;28;20045;-81